TAF LFAQ
METAR LFAQ
LFAQ 280930Z AUTO 32012KT 9000 -SN BKN006/// BKN010/// OVC019/// ///TCU 01/01 Q1000 TEMPO 1200 SNRA BKN007 BKN025CB BECMG 32015G25KT=
LFAQ 280900Z AUTO 32013KT 8000 -SN BKN009/// BKN015/// BKN023/// ///CB 01/01 Q1000 TEMPO 1200 SNRA BECMG 32015G25KT=
LFAQ 280830Z AUTO 33015KT 9999 -RA FEW010/// SCT019/// BKN024/// ///CB 03/02 Q1000 TEMPO 1200 SNRA BKN007 BKN025CB BECMG 32016G28KT=
LFAQ 280800Z AUTO 32014KT 9999 RA FEW009/// BKN024/// BKN044/// ///CB 03/02 Q0999 TEMPO 1200 SNRA BKN007 BKN025CB BECMG 32016G28KT=
LFAQ 280730Z AUTO 31010KT 9999 SCT009/// BKN013/// BKN018/// ///TCU 02/01 Q0999 TEMPO 1200 SNRA BKN007 BKN025CB BECMG 32016G28KT=
WC LFAQ
WS LFAQ
WV LFAQ